Time;durP1;ratioP1;P1;durP2;ratioP2;P2;SDS_P1;SDS_P2;PMS_P1;PMS_P2;Temp;Humidity;BMP_temperature;BMP_pressure;BME280_temperature;BME280_humidity;BME280_pressure;Samples;Min_cycle;Max_cycle;Signal;HPM_P1;HPM_P2
2022/07/22 00:02:18;;;;;;;9.52;2.95;;;;;;;29.35;29.99;99633.44;4466297;32;33614;-60
2022/07/22 00:04:46;;;;;;;9.90;3.30;;;;;;;29.34;29.91;99624.34;4463827;32;33617;-60
2022/07/22 00:07:14;;;;;;;5.75;3.22;;;;;;;29.23;30.07;99616.91;4464194;32;33570;-60
2022/07/22 00:09:42;;;;;;;9.80;4.32;;;;;;;29.19;30.24;99621.22;4456902;32;35446;-59
2022/07/22 00:12:10;;;;;;;6.93;3.15;;;;;;;29.11;30.33;99627.06;4466965;32;33610;-59
2022/07/22 00:14:37;;;;;;;8.75;3.55;;;;;;;29.07;30.42;99623.97;4467366;32;34298;-61
2022/07/22 00:17:05;;;;;;;7.20;3.35;;;;;;;29.07;30.52;99617.63;4467947;32;33394;-59
2022/07/22 00:19:33;;;;;;;6.25;3.30;;;;;;;28.98;30.77;99630.88;4457027;32;35222;-61
2022/07/22 00:22:01;;;;;;;7.25;3.28;;;;;;;28.90;30.98;99623.81;4453170;32;34477;-59
2022/07/22 00:24:28;;;;;;;5.37;2.80;;;;;;;28.83;31.08;99623.06;4454880;32;33376;-59
2022/07/22 00:26:56;;;;;;;5.30;2.92;;;;;;;28.82;31.18;99618.63;4469077;32;33866;-60
2022/07/22 00:29:25;;;;;;;7.55;3.08;;;;;;;28.76;30.59;99625.06;4457019;32;33715;-61
2022/07/22 00:31:52;;;;;;;5.87;2.85;;;;;;;28.62;30.96;99634.63;4461443;32;34148;-60
2022/07/22 00:34:20;;;;;;;6.30;3.30;;;;;;;28.54;31.34;99636.66;4467107;32;34221;-59
2022/07/22 00:36:48;;;;;;;6.00;2.58;;;;;;;28.45;31.15;99640.81;4466664;32;33742;-60
2022/07/22 00:39:15;;;;;;;7.25;2.53;;;;;;;28.39;31.05;99638.13;4460315;32;33787;-58
2022/07/22 00:41:43;;;;;;;6.30;3.10;;;;;;;28.28;30.19;99639.72;4465396;32;32348;-61
2022/07/22 00:44:12;;;;;;;5.03;2.90;;;;;;;28.35;30.24;99640.50;4461961;32;32067;-59
2022/07/22 00:46:41;;;;;;;7.07;2.80;;;;;;;28.18;31.04;99647.72;4463758;32;35620;-60
2022/07/22 00:49:09;;;;;;;11.07;3.20;;;;;;;28.09;31.15;99648.03;4464746;32;35300;-60
2022/07/22 00:51:39;;;;;;;7.22;3.33;;;;;;;28.10;31.09;99649.72;4458357;32;33709;-59
2022/07/22 00:54:07;;;;;;;8.45;3.05;;;;;;;28.12;30.89;99651.37;4467666;32;32099;-60
2022/07/22 00:56:36;;;;;;;6.35;2.58;;;;;;;28.26;30.67;99652.91;4446956;32;33344;-63
2022/07/22 00:59:07;;;;;;;5.10;2.47;;;;;;;28.32;30.35;99651.97;4458113;32;35174;-60
2022/07/22 01:01:34;;;;;;;6.18;2.83;;;;;;;28.37;29.77;99649.34;4463851;32;34425;-61
2022/07/22 01:04:04;;;;;;;6.05;2.60;;;;;;;28.36;30.33;99642.19;4468135;32;34190;-60
2022/07/22 01:06:32;;;;;;;5.40;2.83;;;;;;;28.53;30.40;99648.72;4457305;32;34822;-60
2022/07/22 01:09:00;;;;;;;6.50;3.10;;;;;;;28.55;30.17;99646.59;4456010;32;32619;-62
2022/07/22 01:11:28;;;;;;;8.52;2.70;;;;;;;28.21;30.64;99648.09;4465428;32;33094;-62
2022/07/22 01:13:56;;;;;;;5.50;3.22;;;;;;;28.41;29.99;99647.88;4465642;32;33259;-62
2022/07/22 01:16:24;;;;;;;6.85;3.10;;;;;;;28.49;29.54;99647.53;4462210;32;32581;-62
2022/07/22 01:18:52;;;;;;;4.35;2.40;;;;;;;28.57;29.52;99646.34;4467932;32;33924;-61
2022/07/22 01:21:21;;;;;;;4.97;2.65;;;;;;;28.56;29.60;99647.41;4464910;32;34691;-60
2022/07/22 01:23:49;;;;;;;6.47;2.75;;;;;;;28.44;30.03;99652.03;4467646;32;33322;-60
2022/07/22 01:26:17;;;;;;;5.57;2.70;;;;;;;28.39;30.12;99644.47;4466492;32;32588;-61
2022/07/22 01:28:45;;;;;;;8.40;3.00;;;;;;;28.39;30.05;99644.47;4458530;32;33854;-60
2022/07/22 01:31:13;;;;;;;8.40;2.80;;;;;;;28.29;30.09;99645.03;4464114;32;34792;-61
2022/07/22 01:33:41;;;;;;;9.57;3.05;;;;;;;28.33;30.23;99632.47;4462945;32;34076;-60
2022/07/22 01:36:09;;;;;;;5.37;2.72;;;;;;;28.35;30.51;99640.50;4463462;32;35127;-59
2022/07/22 01:38:38;;;;;;;4.93;2.65;;;;;;;28.24;30.63;99638.53;4465392;32;33948;-61
2022/07/22 01:41:06;;;;;;;6.18;3.22;;;;;;;28.28;30.16;99637.84;4455026;32;35144;-61
2022/07/22 01:43:34;;;;;;;6.90;2.58;;;;;;;28.22;30.19;99637.91;4461898;32;33248;-60
2022/07/22 01:46:02;;;;;;;6.93;2.60;;;;;;;28.26;30.42;99636.41;4450979;32;34312;-60
2022/07/22 01:48:30;;;;;;;6.47;2.67;;;;;;;28.26;30.03;99636.41;4456436;32;34216;-59
2022/07/22 01:50:58;;;;;;;5.00;2.80;;;;;;;28.23;29.89;99634.09;4460412;32;33791;-60
2022/07/22 01:53:26;;;;;;;6.53;2.80;;;;;;;28.19;29.68;99628.25;4461070;32;33244;-62
2022/07/22 01:55:54;;;;;;;7.03;2.92;;;;;;;28.18;29.54;99629.28;4464251;32;34009;-61
2022/07/22 01:58:22;;;;;;;6.87;3.03;;;;;;;28.13;29.45;99633.81;4466091;32;34139;-61
2022/07/22 02:00:50;;;;;;;8.00;2.55;;;;;;;28.07;29.73;99633.66;4463131;32;33347;-60
2022/07/22 02:03:19;;;;;;;5.03;2.45;;;;;;;27.84;29.69;99631.62;4458845;32;34201;-60
2022/07/22 02:05:47;;;;;;;3.58;2.40;;;;;;;27.53;30.22;99642.75;4462163;32;35012;-60
2022/07/22 02:08:15;;;;;;;6.12;2.35;;;;;;;27.50;29.94;99644.03;4464325;32;35250;-59
2022/07/22 02:10:45;;;;;;;6.10;2.45;;;;;;;27.30;30.68;99652.50;4466258;32;32842;-60
2022/07/22 02:13:12;;;;;;;6.87;2.30;;;;;;;27.18;30.29;99648.78;4466239;32;32536;-60
2022/07/22 02:15:40;;;;;;;5.37;2.08;;;;;;;27.17;30.32;99658.94;4463071;32;35181;-60
2022/07/22 02:18:13;;;;;;;6.40;2.30;;;;;;;27.20;30.17;99649.41;4462959;32;34873;-62
2022/07/22 02:20:42;;;;;;;4.82;2.92;;;;;;;27.18;30.21;99654.28;4464311;32;33957;-60
2022/07/22 02:23:11;;;;;;;4.28;2.30;;;;;;;27.13;29.99;99663.22;4467107;32;34493;-61
2022/07/22 02:25:42;;;;;;;4.18;2.28;;;;;;;27.13;30.01;99651.37;4465345;32;34763;-61
2022/07/22 02:28:10;;;;;;;4.10;2.15;;;;;;;27.32;30.05;99652.25;4465332;32;33730;-61
2022/07/22 02:30:38;;;;;;;6.87;2.65;;;;;;;27.38;29.79;99657.72;4462656;32;34712;-61
2022/07/22 02:33:05;;;;;;;5.80;2.85;;;;;;;27.38;29.72;99656.84;4468347;32;33335;-60
2022/07/22 02:35:35;;;;;;;4.43;2.20;;;;;;;27.39;29.61;99661.28;4458336;32;33799;-60
2022/07/22 02:38:04;;;;;;;5.40;2.33;;;;;;;27.45;29.44;99660.38;4453967;32;34082;-61
2022/07/22 02:40:32;;;;;;;6.57;2.50;;;;;;;27.43;29.55;99659.75;4462607;32;33708;-60
2022/07/22 02:43:00;;;;;;;5.30;2.87;;;;;;;27.42;29.74;99663.59;4466266;32;32792;-61
2022/07/22 02:45:27;;;;;;;6.53;2.90;;;;;;;27.27;30.23;99665.84;4467626;32;33804;-59
2022/07/22 02:47:55;;;;;;;7.00;3.08;;;;;;;27.05;30.71;99666.19;4462285;32;33754;-61
2022/07/22 02:50:24;;;;;;;8.35;2.75;;;;;;;26.95;31.03;99665.87;4466118;32;32801;-60
2022/07/22 02:52:52;;;;;;;4.85;2.62;;;;;;;26.97;31.03;99661.00;4467685;32;33354;-61
2022/07/22 02:55:21;;;;;;;6.68;2.70;;;;;;;27.06;30.91;99661.53;4466629;32;33677;-60
2022/07/22 02:57:50;;;;;;;5.03;2.55;;;;;;;26.94;31.08;99669.69;4466677;32;32972;-62
2022/07/22 03:00:17;;;;;;;5.43;2.70;;;;;;;27.00;30.95;99663.31;4458289;32;34056;-60
2022/07/22 03:02:48;;;;;;;5.40;2.47;;;;;;;27.02;30.86;99672.13;4463903;32;34814;-61
2022/07/22 03:05:15;;;;;;;6.40;2.58;;;;;;;27.06;30.70;99670.66;4462352;32;35991;-62
2022/07/22 03:07:44;;;;;;;5.65;3.03;;;;;;;26.76;31.04;99662.19;4453534;32;33632;-61
2022/07/22 03:10:12;;;;;;;5.37;2.12;;;;;;;26.88;30.80;99667.84;4457242;32;33662;-61
2022/07/22 03:12:39;;;;;;;5.60;2.35;;;;;;;26.99;30.15;99660.75;4466201;32;34319;-60
2022/07/22 03:15:07;;;;;;;5.75;2.60;;;;;;;26.67;30.71;99671.75;4464955;32;33193;-61
2022/07/22 03:17:36;;;;;;;6.47;2.58;;;;;;;26.63;30.57;99665.87;4452109;32;33668;-62
2022/07/22 03:20:09;;;;;;;7.90;2.80;;;;;;;26.80;30.38;99671.66;4458293;32;33515;-59
2022/07/22 03:22:37;;;;;;;5.25;2.62;;;;;;;26.81;30.29;99672.53;4465805;32;33390;-62
2022/07/22 03:25:05;;;;;;;4.30;2.10;;;;;;;26.91;30.11;99675.63;4453531;32;31250;-60
2022/07/22 03:27:33;;;;;;;7.00;2.60;;;;;;;26.91;30.70;99672.87;4458376;32;32797;-60
2022/07/22 03:30:01;;;;;;;6.40;2.70;;;;;;;26.92;30.57;99671.81;4461078;32;33889;-60
2022/07/22 03:32:31;;;;;;;7.35;2.55;;;;;;;26.79;30.56;99675.50;4466300;32;32484;-59
2022/07/22 03:34:58;;;;;;;9.15;2.90;;;;;;;26.73;30.46;99681.03;4466680;32;33716;-60
2022/07/22 03:37:31;;;;;;;7.45;3.22;;;;;;;26.81;30.44;99683.53;4456836;32;33768;-62
2022/07/22 03:39:59;;;;;;;5.25;2.80;;;;;;;26.83;30.58;99687.69;4455695;32;34889;-59
2022/07/22 03:42:27;;;;;;;6.47;2.40;;;;;;;26.93;30.52;99684.47;4464354;32;33102;-60
2022/07/22 03:44:55;;;;;;;5.50;2.72;;;;;;;26.70;31.18;99685.88;4458211;32;32646;-60
2022/07/22 03:47:23;;;;;;;5.35;2.25;;;;;;;26.71;31.00;99693.09;4458525;32;33769;-59
2022/07/22 03:49:51;;;;;;;7.55;2.70;;;;;;;26.80;30.58;99687.31;4460300;32;34808;-60
2022/07/22 03:52:25;;;;;;;6.05;2.47;;;;;;;26.71;30.83;99687.59;4464895;32;34707;-60
2022/07/22 03:54:52;;;;;;;6.25;2.50;;;;;;;26.75;30.66;99685.25;4462355;32;35094;-60
2022/07/22 03:57:20;;;;;;;7.90;2.30;;;;;;;26.76;30.72;99681.41;4458734;32;33720;-60
2022/07/22 03:59:49;;;;;;;7.45;2.65;;;;;;;26.70;30.89;99679.56;4465131;32;33983;-60
2022/07/22 04:02:19;;;;;;;10.80;2.87;;;;;;;26.80;31.06;99679.06;4457104;32;33118;-60
2022/07/22 04:04:46;;;;;;;7.22;3.00;;;;;;;26.96;31.06;99684.03;4456781;32;33380;-60
2022/07/22 04:07:15;;;;;;;9.48;2.92;;;;;;;26.95;31.01;99682.34;4465802;32;35018;-60
2022/07/22 04:09:43;;;;;;;9.23;2.65;;;;;;;26.97;30.87;99682.09;4457262;32;32385;-61
2022/07/22 04:12:10;;;;;;;4.97;2.55;;;;;;;27.01;30.92;99681.44;4457182;32;34355;-60
2022/07/22 04:14:40;;;;;;;6.18;2.55;;;;;;;27.04;30.85;99678.25;4441846;32;33386;-60
2022/07/22 04:17:08;;;;;;;6.07;2.78;;;;;;;27.05;30.60;99679.94;4464573;32;35702;-60
2022/07/22 04:19:42;;;;;;;6.70;2.95;;;;;;;27.15;30.39;99691.28;4458828;32;33835;-60
2022/07/22 04:22:10;;;;;;;9.27;2.78;;;;;;;27.24;30.49;99682.78;4464109;32;32135;-59
2022/07/22 04:24:38;;;;;;;9.07;2.58;;;;;;;27.35;30.86;99668.28;4463670;32;35101;-58
2022/07/22 04:27:06;;;;;;;6.20;3.03;;;;;;;27.29;31.98;99670.06;4464975;32;34276;-59
2022/07/22 04:29:34;;;;;;;5.07;2.85;;;;;;;27.38;31.04;99676.94;4465787;32;34767;-58
2022/07/22 04:32:02;;;;;;;7.57;3.00;;;;;;;27.63;31.50;99676.03;4464607;32;33376;-59
2022/07/22 04:34:30;;;;;;;6.85;3.00;;;;;;;27.67;30.48;99674.50;4464009;32;33812;-60
2022/07/22 04:36:58;;;;;;;5.82;2.75;;;;;;;27.73;30.02;99670.03;4466667;32;34916;-60
2022/07/22 04:39:27;;;;;;;5.53;2.60;;;;;;;27.66;30.25;99677.50;4449177;32;32728;-61
2022/07/22 04:41:55;;;;;;;4.95;2.40;;;;;;;27.87;29.97;99679.84;4455696;32;33132;-61
2022/07/22 04:44:23;;;;;;;5.95;2.47;;;;;;;27.86;29.54;99681.75;4461267;32;34574;-60
2022/07/22 04:46:50;;;;;;;6.00;2.70;;;;;;;27.75;29.49;99676.97;4465256;32;33644;-61
2022/07/22 04:49:18;;;;;;;6.10;2.45;;;;;;;27.89;29.39;99669.44;4464741;32;33492;-61
2022/07/22 04:51:46;;;;;;;7.47;2.80;;;;;;;27.95;29.63;99674.03;4462517;32;33073;-60
2022/07/22 04:54:14;;;;;;;5.62;2.87;;;;;;;28.03;30.09;99673.72;4451303;32;34298;-60
2022/07/22 04:56:42;;;;;;;5.10;2.65;;;;;;;28.07;30.05;99674.09;4453958;32;35046;-62
2022/07/22 04:59:11;;;;;;;6.72;2.97;;;;;;;28.15;29.78;99671.03;4465337;32;33525;-60
2022/07/22 05:01:40;;;;;;;6.78;2.62;;;;;;;28.05;29.81;99676.22;4465017;32;33602;-60
2022/07/22 05:04:08;;;;;;;7.60;2.80;;;;;;;28.32;29.57;99671.25;4464322;32;33581;-60
2022/07/22 05:06:36;;;;;;;8.38;3.30;;;;;;;28.36;29.53;99671.63;4459488;32;34718;-59
2022/07/22 05:09:04;;;;;;;6.82;2.55;;;;;;;28.33;29.69;99682.00;4464983;32;35113;-58
2022/07/22 05:11:32;;;;;;;4.95;2.65;;;;;;;28.39;29.69;99680.25;4450618;32;31863;-60
2022/07/22 05:13:59;;;;;;;10.05;3.33;;;;;;;28.42;29.63;99685.31;4465860;32;35104;-60
2022/07/22 05:16:27;;;;;;;5.18;2.80;;;;;;;28.45;29.51;99690.34;4466465;32;33789;-60
2022/07/22 05:18:55;;;;;;;5.80;2.42;;;;;;;28.22;29.94;99685.56;4467809;32;33862;-59
2022/07/22 05:21:23;;;;;;;5.10;2.97;;;;;;;28.56;30.01;99697.81;4464829;32;34558;-59
2022/07/22 05:23:51;;;;;;;5.95;2.80;;;;;;;28.76;29.66;99688.41;4467732;32;33528;-59
2022/07/22 05:26:18;;;;;;;4.50;2.55;;;;;;;28.80;29.82;99692.41;4467222;32;34800;-60
2022/07/22 05:28:46;;;;;;;7.50;2.90;;;;;;;29.01;29.41;99693.78;4467282;32;33599;-60
2022/07/22 05:31:14;;;;;;;6.43;3.10;;;;;;;29.12;29.37;99693.00;4465443;32;33251;-58
2022/07/22 05:33:42;;;;;;;5.55;2.65;;;;;;;29.27;29.15;99695.25;4453267;32;33194;-60
2022/07/22 05:36:11;;;;;;;7.60;3.60;;;;;;;29.41;28.69;99701.41;4458462;32;33408;-60
2022/07/22 05:38:39;;;;;;;7.62;3.50;;;;;;;29.51;28.62;99701.66;4458803;32;33581;-60
2022/07/22 05:41:07;;;;;;;6.90;3.62;;;;;;;29.62;28.89;99700.00;4465584;32;33130;-58
2022/07/22 05:43:34;;;;;;;4.90;3.05;;;;;;;29.71;29.14;99698.53;4460931;32;34050;-60
2022/07/22 05:46:02;;;;;;;7.18;3.30;;;;;;;29.87;29.48;99697.81;4461842;32;34025;-58
2022/07/22 05:48:31;;;;;;;5.78;3.00;;;;;;;30.01;29.76;99701.13;4464232;32;33664;-61
2022/07/22 05:50:58;;;;;;;6.00;3.50;;;;;;;30.22;29.89;99707.12;4465140;32;34741;-59
2022/07/22 05:53:26;;;;;;;7.37;3.22;;;;;;;30.31;29.85;99705.66;4463865;32;34715;-59
2022/07/22 05:55:54;;;;;;;5.10;3.22;;;;;;;30.39;29.31;99706.09;4463480;32;34040;-61
2022/07/22 05:58:22;;;;;;;6.18;2.83;;;;;;;30.53;29.04;99709.44;4462718;32;34606;-59
2022/07/22 06:00:50;;;;;;;9.07;3.10;;;;;;;30.48;29.46;99708.47;4461220;32;34311;-61
2022/07/22 06:03:18;;;;;;;9.48;3.37;;;;;;;30.67;29.23;99700.84;4459552;32;34823;-59
2022/07/22 06:05:46;;;;;;;5.15;3.05;;;;;;;30.53;28.87;99703.03;4467416;32;34961;-59
2022/07/22 06:08:14;;;;;;;5.40;2.95;;;;;;;30.80;28.15;99698.63;4452615;32;33291;-59
2022/07/22 06:10:42;;;;;;;6.87;2.78;;;;;;;30.99;28.38;99702.00;4460757;32;31939;-59
2022/07/22 06:13:09;;;;;;;5.28;2.90;;;;;;;31.23;26.71;99708.22;4466931;32;32694;-59
2022/07/22 06:15:37;;;;;;;6.85;2.75;;;;;;;31.25;27.06;99707.97;4466499;32;34778;-61
2022/07/22 06:18:05;;;;;;;6.22;2.87;;;;;;;31.32;27.23;99716.94;4453352;32;32995;-61
2022/07/22 06:20:33;;;;;;;8.38;2.90;;;;;;;31.36;26.03;99711.75;4460395;32;33443;-60
2022/07/22 06:23:01;;;;;;;7.32;3.15;;;;;;;31.39;26.50;99712.09;4455794;32;33832;-60
2022/07/22 06:25:29;;;;;;;7.65;2.67;;;;;;;31.51;25.17;99712.84;4468223;32;34394;-59
2022/07/22 06:28:10;;;;;;;8.02;2.85;;;;;;;31.55;25.48;99704.88;4464981;32;33659;-60
2022/07/22 06:30:39;;;;;;;6.25;2.78;;;;;;;31.65;25.03;99702.25;4458834;32;34625;-59
2022/07/22 06:33:08;;;;;;;5.62;2.90;;;;;;;31.41;24.56;99698.88;4463392;32;33675;-61
2022/07/22 06:35:39;;;;;;;5.97;2.75;;;;;;;31.68;24.00;99706.44;4465366;32;33790;-59
2022/07/22 06:38:07;;;;;;;6.28;2.20;;;;;;;31.68;24.19;99707.28;4455805;32;33741;-59
2022/07/22 06:40:37;;;;;;;4.95;2.47;;;;;;;31.83;25.23;99705.84;4457875;32;33261;-61
2022/07/22 06:43:12;;;;;;;11.12;2.35;;;;;;;31.68;23.85;99710.03;4464614;32;34085;-60
2022/07/22 06:45:43;;;;;;;5.78;2.60;;;;;;;31.93;23.86;99701.31;4462828;32;34964;-59
2022/07/22 06:48:11;;;;;;;9.52;2.60;;;;;;;31.94;23.73;99708.53;4464019;32;33662;-60
2022/07/22 06:50:38;;;;;;;8.68;2.60;;;;;;;31.60;23.38;99706.91;4451447;32;32015;-60
2022/07/22 06:53:08;;;;;;;6.30;2.55;;;;;;;31.89;23.83;99705.69;4463251;32;33702;-60
2022/07/22 06:55:37;;;;;;;6.22;2.50;;;;;;;32.20;22.33;99706.06;4453048;32;35038;-59
2022/07/22 06:58:04;;;;;;;4.43;2.50;;;;;;;32.31;22.33;99702.34;4463732;32;32714;-59
2022/07/22 07:00:33;;;;;;;6.97;2.30;;;;;;;32.20;23.02;99703.31;4445757;32;31946;-60
2022/07/22 07:03:03;;;;;;;7.40;2.25;;;;;;;32.07;23.05;99703.69;4461474;32;34899;-59
2022/07/22 07:05:51;;;;;;;5.85;2.30;;;;;;;32.17;22.72;99703.84;4462986;32;32500;-61
2022/07/22 07:08:19;;;;;;;6.25;2.25;;;;;;;32.53;22.01;99696.81;4458733;32;35687;-60
2022/07/22 07:10:47;;;;;;;5.43;1.90;;;;;;;32.47;21.67;99697.84;4452564;32;34547;-60
2022/07/22 07:13:17;;;;;;;7.95;2.65;;;;;;;32.32;22.43;99692.94;4461513;32;35028;-58
2022/07/22 07:15:44;;;;;;;5.90;2.37;;;;;;;32.61;22.02;99692.75;4451645;32;33819;-59
2022/07/22 07:18:13;;;;;;;4.80;2.28;;;;;;;32.23;23.16;99697.25;4452319;32;32757;-60
2022/07/22 07:20:41;;;;;;;4.03;2.10;;;;;;;32.29;23.27;99689.84;4454877;32;32359;-60
2022/07/22 07:23:10;;;;;;;5.57;2.28;;;;;;;32.66;22.58;99684.50;4448305;32;33420;-59
2022/07/22 07:25:39;;;;;;;6.80;2.37;;;;;;;32.06;22.88;99691.78;4461094;32;34187;-60
2022/07/22 07:28:07;;;;;;;7.07;2.42;;;;;;;32.72;21.59;99691.75;4455094;32;33606;-59
2022/07/22 07:30:38;;;;;;;7.32;2.65;;;;;;;32.87;21.83;99696.59;4452539;32;101073;-60
2022/07/22 07:33:06;;;;;;;5.43;2.05;;;;;;;32.63;21.47;99690.56;4462454;32;34640;-60
2022/07/22 07:35:34;;;;;;;4.18;2.10;;;;;;;32.90;20.35;99693.31;4455299;32;32599;-58
2022/07/22 07:38:02;;;;;;;8.75;2.17;;;;;;;32.93;20.55;99684.47;4464128;32;34748;-60
2022/07/22 07:40:31;;;;;;;4.53;2.28;;;;;;;32.52;21.85;99692.38;4455402;32;31988;-59
2022/07/22 07:42:59;;;;;;;3.80;1.80;;;;;;;33.02;20.95;99690.41;4452374;32;33991;-59
2022/07/22 07:45:31;;;;;;;5.43;2.47;;;;;;;33.05;20.27;99693.47;4462964;32;33649;-60
2022/07/22 07:48:00;;;;;;;4.40;2.15;;;;;;;33.06;20.20;99694.31;4465922;32;35015;-59
2022/07/22 07:50:29;;;;;;;5.80;2.30;;;;;;;33.10;20.27;99689.94;4456380;32;34669;-60
2022/07/22 07:52:57;;;;;;;5.22;2.15;;;;;;;33.02;20.32;99688.47;4464519;32;34950;-59
2022/07/22 07:55:25;;;;;;;9.85;2.12;;;;;;;33.24;20.26;99693.91;4465644;32;35213;-60
2022/07/22 07:57:53;;;;;;;5.22;2.25;;;;;;;32.82;20.78;99689.09;4465270;32;32659;-59
2022/07/22 08:00:24;;;;;;;7.12;2.47;;;;;;;33.09;20.58;99688.25;4461002;32;33438;-60
2022/07/22 08:02:55;;;;;;;4.95;2.12;;;;;;;33.26;20.49;99694.50;4460021;32;33882;-60
2022/07/22 08:05:24;;;;;;;5.28;2.08;;;;;;;33.43;20.60;99693.50;4466736;32;35198;-61
2022/07/22 08:07:53;;;;;;;4.70;2.20;;;;;;;33.46;20.25;99690.22;4461508;32;33920;-60
2022/07/22 08:10:21;;;;;;;5.20;2.28;;;;;;;33.47;20.72;99695.47;4454663;32;33553;-60
2022/07/22 08:13:09;;;;;;;5.72;2.20;;;;;;;33.63;21.01;99694.50;4454858;32;33982;-59
2022/07/22 08:15:37;;;;;;;6.70;2.05;;;;;;;33.76;20.10;99682.09;4464960;32;32715;-60
2022/07/22 08:18:05;;;;;;;6.40;2.60;;;;;;;33.65;21.28;99687.87;4460869;32;34561;-59
2022/07/22 08:20:34;;;;;;;4.45;2.20;;;;;;;33.73;20.04;99679.84;4465234;32;34014;-61
2022/07/22 08:23:02;;;;;;;5.40;2.20;;;;;;;33.73;20.16;99687.34;4461985;32;35164;-59
2022/07/22 08:25:30;;;;;;;7.78;2.47;;;;;;;33.77;20.76;99683.78;4453925;32;35794;-61
2022/07/22 08:27:58;;;;;;;4.50;2.30;;;;;;;33.94;19.83;99678.03;4465462;32;33615;-61
2022/07/22 08:30:29;;;;;;;4.72;2.35;;;;;;;33.72;20.49;99683.75;4463729;32;33286;-59
2022/07/22 08:32:57;;;;;;;9.85;3.42;;;;;;;33.91;20.54;99680.53;4458383;32;34141;-61
2022/07/22 08:35:25;;;;;;;6.12;2.97;;;;;;;33.90;20.16;99685.22;4451954;32;32554;-61
2022/07/22 08:37:53;;;;;;;8.70;2.60;;;;;;;33.85;20.53;99683.25;4463050;32;33858;-60
2022/07/22 08:40:21;;;;;;;5.53;2.60;;;;;;;33.91;20.94;99680.53;4451289;32;32057;-60
2022/07/22 08:42:49;;;;;;;9.15;3.08;;;;;;;34.04;21.23;99688.37;4448392;32;33992;-60
2022/07/22 08:45:18;;;;;;;8.27;3.30;;;;;;;34.27;20.71;99684.31;4464992;32;35729;-60
2022/07/22 08:47:48;;;;;;;10.10;3.40;;;;;;;34.22;21.50;99685.12;4448444;32;33699;-60
2022/07/22 08:50:17;;;;;;;6.55;2.67;;;;;;;34.50;20.93;99686.59;4445529;32;32453;-61
2022/07/22 08:52:45;;;;;;;6.00;2.42;;;;;;;34.16;21.33;99685.34;4464736;32;33942;-60
2022/07/22 08:55:12;;;;;;;7.97;3.50;;;;;;;34.50;20.20;99682.97;4452078;32;33685;-60
2022/07/22 08:57:45;;;;;;;6.72;3.60;;;;;;;34.37;20.92;99684.34;4447994;32;33848;-60
2022/07/22 09:00:16;;;;;;;9.07;3.28;;;;;;;34.55;20.87;99677.47;4452343;32;31965;-60
2022/07/22 09:02:45;;;;;;;6.10;3.40;;;;;;;34.36;21.92;99685.44;4444766;32;33739;-61
2022/07/22 09:05:14;;;;;;;10.80;3.25;;;;;;;34.96;21.58;99689.50;4466785;32;33842;-62
2022/07/22 09:08:03;;;;;;;5.75;2.92;;;;;;;34.25;22.09;99689.28;4447629;32;33306;-61
2022/07/22 09:10:33;;;;;;;13.88;4.12;;;;;;;34.87;21.62;99680.03;4464850;32;34503;-60
2022/07/22 09:13:05;;;;;;;7.85;3.67;;;;;;;35.14;21.62;99682.56;4463564;32;33821;-62
2022/07/22 09:15:36;;;;;;;6.40;3.20;;;;;;;34.92;22.21;99676.41;4458124;32;33289;-62
2022/07/22 09:18:05;;;;;;;7.45;3.53;;;;;;;34.78;21.74;99678.91;4465083;32;33794;-59
2022/07/22 09:20:35;;;;;;;10.18;3.70;;;;;;;35.43;20.61;99673.63;4445024;32;31957;-62
2022/07/22 09:23:17;;;;;;;7.50;3.12;;;;;;;35.59;21.09;99666.13;4461257;32;33170;-61
2022/07/22 09:25:45;;;;;;;9.02;3.58;;;;;;;35.32;21.41;99667.25;4456030;32;33839;-60
2022/07/22 09:28:20;;;;;;;7.03;3.83;;;;;;;35.73;20.48;99664.41;4462217;32;33564;-61
2022/07/22 09:30:55;;;;;;;6.40;3.58;;;;;;;36.06;20.55;99670.47;4459421;32;33234;-62
2022/07/22 09:33:26;;;;;;;6.60;3.75;;;;;;;36.09;19.84;99667.94;4457812;32;33140;-62
2022/07/22 09:36:02;;;;;;;7.43;3.50;;;;;;;36.20;19.83;99662.31;4464323;32;34934;-61
2022/07/22 09:38:32;;;;;;;6.55;3.50;;;;;;;36.37;19.82;99665.56;4464224;32;34331;-61
2022/07/22 09:41:01;;;;;;;8.90;3.80;;;;;;;36.27;20.21;99666.47;4459644;32;35080;-62
2022/07/22 09:43:34;;;;;;;6.28;3.92;;;;;;;36.42;20.40;99665.56;4467732;32;33732;-61
2022/07/22 09:46:03;;;;;;;9.70;4.00;;;;;;;36.46;20.61;99655.50;4460551;32;35430;-62
2022/07/22 09:48:32;;;;;;;9.48;4.47;;;;;;;36.49;20.82;99652.13;4460283;32;33036;-60
2022/07/22 09:51:00;;;;;;;8.82;4.40;;;;;;;36.77;21.03;99661.72;4454044;32;33928;-62
2022/07/22 09:53:29;;;;;;;7.32;4.55;;;;;;;36.94;21.24;99660.47;4442549;32;32619;-61
2022/07/22 09:55:58;;;;;;;9.60;4.70;;;;;;;36.94;20.88;99649.34;4444030;32;33862;-61
2022/07/22 09:58:27;;;;;;;8.00;4.28;;;;;;;37.35;20.95;99647.03;4463286;32;33850;-61
2022/07/22 10:00:59;;;;;;;8.20;4.60;;;;;;;37.58;20.46;99642.63;4441484;32;31938;-60
2022/07/22 10:03:33;;;;;;;8.07;4.50;;;;;;;37.64;20.65;99644.25;4461609;32;33764;-61
2022/07/22 10:06:02;;;;;;;8.25;4.62;;;;;;;37.57;21.25;99640.16;4464210;32;34089;-62
2022/07/22 10:08:31;;;;;;;8.15;4.53;;;;;;;37.22;21.81;99642.97;4449240;32;33782;-60
2022/07/22 10:11:02;;;;;;;8.90;4.55;;;;;;;37.69;21.13;99643.34;4463446;32;34522;-60
2022/07/22 10:13:31;;;;;;;6.72;4.87;;;;;;;37.92;21.60;99642.56;4460873;32;34024;-61
2022/07/22 10:15:59;;;;;;;8.05;4.72;;;;;;;37.94;21.20;99639.44;4455370;32;33785;-61
2022/07/22 10:18:30;;;;;;;8.13;4.62;;;;;;;37.84;21.45;99631.16;4456573;32;33865;-60
2022/07/22 10:21:07;;;;;;;9.45;5.05;;;;;;;37.78;21.46;99632.34;4452919;32;33189;-60
2022/07/22 10:23:35;;;;;;;10.48;5.05;;;;;;;38.17;21.23;99633.00;4458464;32;33725;-60
2022/07/22 10:26:04;;;;;;;6.57;4.70;;;;;;;37.72;21.69;99629.66;4449664;32;32158;-60
2022/07/22 10:28:34;;;;;;;7.20;4.53;;;;;;;37.27;21.98;99623.41;4451569;32;33949;-60
2022/07/22 10:31:14;;;;;;;7.62;4.80;;;;;;;37.64;21.63;99629.47;4459518;32;33528;-62
2022/07/22 10:33:43;;;;;;;8.60;4.70;;;;;;;37.29;22.00;99626.72;4441407;32;32324;-60
2022/07/22 10:36:13;;;;;;;8.05;4.25;;;;;;;37.99;21.04;99622.63;4436777;32;32601;-62
2022/07/22 10:39:06;;;;;;;6.53;4.57;;;;;;;38.15;20.51;99623.25;4467194;32;32431;-62
2022/07/22 10:41:39;;;;;;;8.02;3.97;;;;;;;38.58;19.65;99620.41;4454298;32;33503;-62
2022/07/22 10:44:07;;;;;;;7.78;4.70;;;;;;;38.13;20.75;99619.94;4437596;32;32474;-60
2022/07/22 10:46:51;;;;;;;7.00;3.92;;;;;;;38.27;20.98;99620.00;4429300;32;32678;-61
2022/07/22 10:49:25;;;;;;;9.98;4.95;;;;;;;38.50;19.87;99618.31;4451340;32;32415;-61
2022/07/22 10:52:09;;;;;;;9.80;4.40;;;;;;;38.48;18.99;99617.78;4464299;32;33590;-63
2022/07/22 10:55:18;;;;;;;9.50;4.28;;;;;;;39.07;19.33;99616.28;4457324;32;33868;-60
2022/07/22 10:57:48;;;;;;;9.57;3.62;;;;;;;38.94;19.50;99619.87;4458791;32;32829;-62
2022/07/22 11:00:16;;;;;;;8.68;4.15;;;;;;;39.01;19.54;99620.31;4459891;32;34663;-61
2022/07/22 11:02:43;;;;;;;8.05;3.40;;;;;;;39.00;19.28;99613.03;4456742;32;33369;-62
2022/07/22 11:05:11;;;;;;;10.68;4.05;;;;;;;39.17;18.41;99599.31;4453385;32;33499;-60
2022/07/22 11:07:46;;;;;;;4.93;3.22;;;;;;;39.41;17.89;99603.94;4462450;32;33989;-61
2022/07/22 11:10:17;;;;;;;7.43;3.33;;;;;;;38.63;17.71;99601.59;4451105;32;33878;-62
2022/07/22 11:12:49;;;;;;;6.35;3.45;;;;;;;39.42;17.15;99592.41;4459169;32;34524;-61
2022/07/22 11:15:17;;;;;;;7.78;3.80;;;;;;;39.73;17.10;99600.25;4456664;32;33063;-60
2022/07/22 11:17:45;;;;;;;11.68;3.67;;;;;;;39.71;17.17;99589.31;4451326;32;33784;-61
2022/07/22 11:20:15;;;;;;;7.95;3.83;;;;;;;39.53;17.70;99598.66;4455242;32;35163;-60
2022/07/22 11:22:46;;;;;;;5.70;3.70;;;;;;;39.11;18.01;99583.75;4457370;32;32591;-60
2022/07/22 11:25:14;;;;;;;10.93;3.90;;;;;;;39.37;18.07;99589.72;4447375;32;33512;-61
2022/07/22 11:27:51;;;;;;;5.28;3.28;;;;;;;39.63;18.15;99587.25;4448278;32;34355;-62
2022/07/22 11:30:18;;;;;;;7.10;3.50;;;;;;;39.36;17.69;99588.09;4461297;32;34177;-62
2022/07/22 11:32:47;;;;;;;6.35;3.22;;;;;;;39.61;17.19;99583.91;4443448;32;31745;-60
2022/07/22 11:35:15;;;;;;;8.48;3.83;;;;;;;38.92;17.87;99580.19;4449515;32;33902;-62
2022/07/22 11:37:43;;;;;;;8.38;3.58;;;;;;;39.02;18.15;99580.84;4452216;32;34067;-61
2022/07/22 11:40:12;;;;;;;7.53;3.90;;;;;;;39.03;17.69;99574.09;4436530;32;34990;-62
2022/07/22 11:42:39;;;;;;;9.00;3.72;;;;;;;39.54;17.85;99573.13;4456634;32;32973;-61
2022/07/22 11:45:07;;;;;;;7.20;3.65;;;;;;;39.32;17.63;99576.66;4456711;32;33819;-61